Terminal Aerodrome Forecast
Issued by NWS

Home | Current Version | Previous Version | Text Only | Print | Product List | Glossary On
Versions: 1 2 3 4 5 6 7 8 9 10 11 12 13 14 15 16 17 18 19 20 21 22 23 24 25 26 27 28 29 30 31 32 33 34
000
FTUS43 KDDC 060117 AAA
TAFGCK
TAF AMD
KGCK 060117Z 0601/0624 15018G25KT P6SM SCT013 BKN023
     FM060200 15018G25KT P6SM VCTS BKN025CB
     FM060330 15017KT P6SM BKN015
     FM061500 18020G30KT P6SM BKN015
     FM061700 18020G30KT P6SM SCT050=

USA.gov is the U.S. government's official web portal to all federal, state and local government web resources and services.